sensor_id;sensor_type;location;lat;lon;timestamp;temperature;humidity
6822;DHT22;3449;48.728;8.968;2023-07-29T00:00:06;16.40;99.90
6822;DHT22;3449;48.728;8.968;2023-07-29T00:02:33;16.30;99.90
6822;DHT22;3449;48.728;8.968;2023-07-29T00:05:00;16.40;99.90
6822;DHT22;3449;48.728;8.968;2023-07-29T00:07:27;16.40;99.90
6822;DHT22;3449;48.728;8.968;2023-07-29T00:09:55;16.40;99.90
6822;DHT22;3449;48.728;8.968;2023-07-29T00:12:22;16.30;99.90
6822;DHT22;3449;48.728;8.968;2023-07-29T00:14:50;16.30;99.90
6822;DHT22;3449;48.728;8.968;2023-07-29T00:17:18;16.30;99.90
6822;DHT22;3449;48.728;8.968;2023-07-29T00:19:46;16.30;99.90
6822;DHT22;3449;48.728;8.968;2023-07-29T00:22:13;16.30;99.90
6822;DHT22;3449;48.728;8.968;2023-07-29T00:24:40;16.30;99.90
6822;DHT22;3449;48.728;8.968;2023-07-29T00:27:07;16.40;99.90
6822;DHT22;3449;48.728;8.968;2023-07-29T00:29:33;16.30;99.90
6822;DHT22;3449;48.728;8.968;2023-07-29T00:32:00;16.30;99.90
6822;DHT22;3449;48.728;8.968;2023-07-29T00:34:28;16.30;99.90
6822;DHT22;3449;48.728;8.968;2023-07-29T00:36:56;16.40;99.90
6822;DHT22;3449;48.728;8.968;2023-07-29T00:39:23;16.40;99.90
6822;DHT22;3449;48.728;8.968;2023-07-29T00:41:50;16.30;99.90
6822;DHT22;3449;48.728;8.968;2023-07-29T00:44:16;16.30;99.90
6822;DHT22;3449;48.728;8.968;2023-07-29T00:46:45;16.30;99.90
6822;DHT22;3449;48.728;8.968;2023-07-29T00:49:12;16.40;99.90
6822;DHT22;3449;48.728;8.968;2023-07-29T00:51:41;16.40;99.90
6822;DHT22;3449;48.728;8.968;2023-07-29T00:54:08;16.40;99.90
6822;DHT22;3449;48.728;8.968;2023-07-29T00:56:35;16.30;99.90
6822;DHT22;3449;48.728;8.968;2023-07-29T00:59:04;16.40;99.90
6822;DHT22;3449;48.728;8.968;2023-07-29T01:01:31;16.30;99.90
6822;DHT22;3449;48.728;8.968;2023-07-29T01:03:59;16.30;99.90
6822;DHT22;3449;48.728;8.968;2023-07-29T01:06:34;16.40;99.90
6822;DHT22;3449;48.728;8.968;2023-07-29T01:09:20;16.30;99.90
6822;DHT22;3449;48.728;8.968;2023-07-29T01:11:55;16.30;99.90
6822;DHT22;3449;48.728;8.968;2023-07-29T01:14:33;16.30;99.90
6822;DHT22;3449;48.728;8.968;2023-07-29T01:17:04;16.30;99.90
6822;DHT22;3449;48.728;8.968;2023-07-29T01:19:43;16.30;99.90
6822;DHT22;3449;48.728;8.968;2023-07-29T01:22:17;16.30;99.90
6822;DHT22;3449;48.728;8.968;2023-07-29T01:24:46;16.30;99.90
6822;DHT22;3449;48.728;8.968;2023-07-29T01:27:13;16.30;99.90
6822;DHT22;3449;48.728;8.968;2023-07-29T01:29:40;16.20;99.90
6822;DHT22;3449;48.728;8.968;2023-07-29T01:32:11;16.30;99.90
6822;DHT22;3449;48.728;8.968;2023-07-29T01:34:43;16.30;99.90
6822;DHT22;3449;48.728;8.968;2023-07-29T01:37:16;16.20;99.90
6822;DHT22;3449;48.728;8.968;2023-07-29T01:39:49;16.20;99.90
6822;DHT22;3449;48.728;8.968;2023-07-29T01:42:17;16.20;99.90
6822;DHT22;3449;48.728;8.968;2023-07-29T01:44:44;16.20;99.90
6822;DHT22;3449;48.728;8.968;2023-07-29T01:47:11;16.20;99.90
6822;DHT22;3449;48.728;8.968;2023-07-29T01:49:38;16.20;99.90
6822;DHT22;3449;48.728;8.968;2023-07-29T01:52:05;16.20;99.90
6822;DHT22;3449;48.728;8.968;2023-07-29T01:54:32;16.20;99.90
6822;DHT22;3449;48.728;8.968;2023-07-29T01:57:00;16.10;99.90
6822;DHT22;3449;48.728;8.968;2023-07-29T01:59:27;16.10;99.90
6822;DHT22;3449;48.728;8.968;2023-07-29T02:01:53;16.10;99.90
6822;DHT22;3449;48.728;8.968;2023-07-29T02:04:20;16.10;99.90
6822;DHT22;3449;48.728;8.968;2023-07-29T02:06:50;16.00;99.90
6822;DHT22;3449;48.728;8.968;2023-07-29T02:09:17;16.00;99.90
6822;DHT22;3449;48.728;8.968;2023-07-29T02:11:43;15.90;99.90
6822;DHT22;3449;48.728;8.968;2023-07-29T02:14:12;15.90;99.90
6822;DHT22;3449;48.728;8.968;2023-07-29T02:16:39;15.90;99.90
6822;DHT22;3449;48.728;8.968;2023-07-29T02:19:06;15.90;99.90
6822;DHT22;3449;48.728;8.968;2023-07-29T02:21:32;15.90;99.90
6822;DHT22;3449;48.728;8.968;2023-07-29T02:23:59;15.90;99.90
6822;DHT22;3449;48.728;8.968;2023-07-29T02:26:26;15.90;99.90
6822;DHT22;3449;48.728;8.968;2023-07-29T02:28:53;15.90;99.90
6822;DHT22;3449;48.728;8.968;2023-07-29T02:31:22;15.90;99.90
6822;DHT22;3449;48.728;8.968;2023-07-29T02:33:49;16.00;99.90
6822;DHT22;3449;48.728;8.968;2023-07-29T02:36:16;15.90;99.90
6822;DHT22;3449;48.728;8.968;2023-07-29T02:38:44;16.00;99.90
6822;DHT22;3449;48.728;8.968;2023-07-29T02:41:13;16.00;99.90
6822;DHT22;3449;48.728;8.968;2023-07-29T02:43:42;16.00;99.90
6822;DHT22;3449;48.728;8.968;2023-07-29T02:46:09;16.00;99.90
6822;DHT22;3449;48.728;8.968;2023-07-29T02:48:37;16.00;99.90
6822;DHT22;3449;48.728;8.968;2023-07-29T02:51:04;16.00;99.90
6822;DHT22;3449;48.728;8.968;2023-07-29T02:53:31;16.00;99.90
6822;DHT22;3449;48.728;8.968;2023-07-29T02:55:58;16.00;99.90
6822;DHT22;3449;48.728;8.968;2023-07-29T02:58:24;16.00;99.90
6822;DHT22;3449;48.728;8.968;2023-07-29T03:00:53;16.00;99.90
6822;DHT22;3449;48.728;8.968;2023-07-29T03:03:20;16.00;99.90
6822;DHT22;3449;48.728;8.968;2023-07-29T03:05:48;16.00;99.90
6822;DHT22;3449;48.728;8.968;2023-07-29T03:08:16;16.00;99.90
6822;DHT22;3449;48.728;8.968;2023-07-29T03:10:46;16.00;99.90
6822;DHT22;3449;48.728;8.968;2023-07-29T03:13:16;16.00;99.90
6822;DHT22;3449;48.728;8.968;2023-07-29T03:15:43;16.00;99.90
6822;DHT22;3449;48.728;8.968;2023-07-29T03:18:10;16.00;99.90
6822;DHT22;3449;48.728;8.968;2023-07-29T03:20:36;16.00;99.90
6822;DHT22;3449;48.728;8.968;2023-07-29T03:23:05;15.90;99.90
6822;DHT22;3449;48.728;8.968;2023-07-29T03:25:32;16.00;99.90
6822;DHT22;3449;48.728;8.968;2023-07-29T03:27:59;16.00;99.90
6822;DHT22;3449;48.728;8.968;2023-07-29T03:30:26;16.00;99.90
6822;DHT22;3449;48.728;8.968;2023-07-29T03:32:52;16.00;99.90
6822;DHT22;3449;48.728;8.968;2023-07-29T03:35:19;16.00;99.90
6822;DHT22;3449;48.728;8.968;2023-07-29T03:37:46;16.00;99.90
6822;DHT22;3449;48.728;8.968;2023-07-29T03:40:14;16.00;99.90
6822;DHT22;3449;48.728;8.968;2023-07-29T03:42:41;16.00;99.90
6822;DHT22;3449;48.728;8.968;2023-07-29T03:45:09;16.00;99.90
6822;DHT22;3449;48.728;8.968;2023-07-29T03:47:35;16.10;99.90
6822;DHT22;3449;48.728;8.968;2023-07-29T03:50:03;16.10;99.90
6822;DHT22;3449;48.728;8.968;2023-07-29T03:52:30;16.10;99.90
6822;DHT22;3449;48.728;8.968;2023-07-29T03:54:56;16.10;99.90
6822;DHT22;3449;48.728;8.968;2023-07-29T03:57:25;16.20;99.90
6822;DHT22;3449;48.728;8.968;2023-07-29T03:59:52;16.10;99.90
6822;DHT22;3449;48.728;8.968;2023-07-29T04:02:21;16.20;99.90
6822;DHT22;3449;48.728;8.968;2023-07-29T04:04:48;16.20;99.90
6822;DHT22;3449;48.728;8.968;2023-07-29T04:07:18;16.10;99.90
6822;DHT22;3449;48.728;8.968;2023-07-29T04:09:48;16.10;99.90
6822;DHT22;3449;48.728;8.968;2023-07-29T04:12:15;16.20;99.90
6822;DHT22;3449;48.728;8.968;2023-07-29T04:14:43;16.20;99.90
6822;DHT22;3449;48.728;8.968;2023-07-29T04:17:10;16.20;99.90
6822;DHT22;3449;48.728;8.968;2023-07-29T04:19:37;16.20;99.90
6822;DHT22;3449;48.728;8.968;2023-07-29T04:22:04;16.20;99.90
6822;DHT22;3449;48.728;8.968;2023-07-29T04:24:31;16.20;99.90
6822;DHT22;3449;48.728;8.968;2023-07-29T04:26:58;16.20;99.90
6822;DHT22;3449;48.728;8.968;2023-07-29T04:29:24;16.20;99.90
6822;DHT22;3449;48.728;8.968;2023-07-29T04:31:56;16.20;99.90
6822;DHT22;3449;48.728;8.968;2023-07-29T04:34:22;16.10;99.90
6822;DHT22;3449;48.728;8.968;2023-07-29T04:36:49;16.10;99.90
6822;DHT22;3449;48.728;8.968;2023-07-29T04:39:16;16.10;99.90
6822;DHT22;3449;48.728;8.968;2023-07-29T04:41:44;16.10;99.90
6822;DHT22;3449;48.728;8.968;2023-07-29T04:44:10;16.20;99.90
6822;DHT22;3449;48.728;8.968;2023-07-29T04:46:37;16.20;99.90
6822;DHT22;3449;48.728;8.968;2023-07-29T04:49:06;16.20;99.90
6822;DHT22;3449;48.728;8.968;2023-07-29T04:51:33;16.20;99.90
6822;DHT22;3449;48.728;8.968;2023-07-29T04:54:00;16.20;99.90
6822;DHT22;3449;48.728;8.968;2023-07-29T04:56:26;16.20;99.90
6822;DHT22;3449;48.728;8.968;2023-07-29T04:58:53;16.30;99.90
6822;DHT22;3449;48.728;8.968;2023-07-29T05:01:20;16.30;99.90
6822;DHT22;3449;48.728;8.968;2023-07-29T05:03:47;16.30;99.90
6822;DHT22;3449;48.728;8.968;2023-07-29T05:06:15;16.30;99.90
6822;DHT22;3449;48.728;8.968;2023-07-29T05:08:42;16.30;99.90
6822;DHT22;3449;48.728;8.968;2023-07-29T05:11:09;16.30;99.90
6822;DHT22;3449;48.728;8.968;2023-07-29T05:13:36;16.40;99.90
6822;DHT22;3449;48.728;8.968;2023-07-29T05:16:03;16.30;99.90
6822;DHT22;3449;48.728;8.968;2023-07-29T05:18:30;16.30;99.90
6822;DHT22;3449;48.728;8.968;2023-07-29T05:20:59;16.30;99.90
6822;DHT22;3449;48.728;8.968;2023-07-29T05:23:27;16.30;99.90
6822;DHT22;3449;48.728;8.968;2023-07-29T05:25:54;16.30;99.90
6822;DHT22;3449;48.728;8.968;2023-07-29T05:28:21;16.30;99.90
6822;DHT22;3449;48.728;8.968;2023-07-29T05:30:50;16.40;99.90
6822;DHT22;3449;48.728;8.968;2023-07-29T05:33:17;16.40;99.90
6822;DHT22;3449;48.728;8.968;2023-07-29T05:35:44;16.40;99.90
6822;DHT22;3449;48.728;8.968;2023-07-29T05:38:12;16.50;99.90
6822;DHT22;3449;48.728;8.968;2023-07-29T05:40:41;16.50;99.90
6822;DHT22;3449;48.728;8.968;2023-07-29T05:43:08;16.60;99.90
6822;DHT22;3449;48.728;8.968;2023-07-29T05:45:37;16.70;99.90
6822;DHT22;3449;48.728;8.968;2023-07-29T05:48:04;16.70;99.90
6822;DHT22;3449;48.728;8.968;2023-07-29T05:50:31;16.80;99.90
6822;DHT22;3449;48.728;8.968;2023-07-29T05:53:01;16.90;99.90
6822;DHT22;3449;48.728;8.968;2023-07-29T05:55:29;16.90;99.90
6822;DHT22;3449;48.728;8.968;2023-07-29T05:57:57;17.00;99.90
6822;DHT22;3449;48.728;8.968;2023-07-29T06:00:24;17.20;99.90
6822;DHT22;3449;48.728;8.968;2023-07-29T06:02:51;17.20;99.90
6822;DHT22;3449;48.728;8.968;2023-07-29T06:05:18;17.30;99.90
6822;DHT22;3449;48.728;8.968;2023-07-29T06:07:45;17.30;99.90
6822;DHT22;3449;48.728;8.968;2023-07-29T06:10:15;17.40;99.90
6822;DHT22;3449;48.728;8.968;2023-07-29T06:12:44;17.40;99.90
6822;DHT22;3449;48.728;8.968;2023-07-29T06:15:12;17.50;99.90
6822;DHT22;3449;48.728;8.968;2023-07-29T06:17:39;17.60;99.90
6822;DHT22;3449;48.728;8.968;2023-07-29T06:20:07;17.70;99.90
6822;DHT22;3449;48.728;8.968;2023-07-29T06:22:34;17.70;99.90
6822;DHT22;3449;48.728;8.968;2023-07-29T06:25:01;17.70;99.90
6822;DHT22;3449;48.728;8.968;2023-07-29T06:27:28;17.70;99.90
6822;DHT22;3449;48.728;8.968;2023-07-29T06:29:54;17.70;99.90
6822;DHT22;3449;48.728;8.968;2023-07-29T06:32:23;17.70;99.90
6822;DHT22;3449;48.728;8.968;2023-07-29T06:34:50;17.70;99.90
6822;DHT22;3449;48.728;8.968;2023-07-29T06:37:19;17.60;99.90
6822;DHT22;3449;48.728;8.968;2023-07-29T06:39:46;17.70;99.90
6822;DHT22;3449;48.728;8.968;2023-07-29T06:42:13;17.70;99.90
6822;DHT22;3449;48.728;8.968;2023-07-29T06:44:40;17.70;99.90
6822;DHT22;3449;48.728;8.968;2023-07-29T06:47:07;17.70;99.90
6822;DHT22;3449;48.728;8.968;2023-07-29T06:49:35;17.70;99.90
6822;DHT22;3449;48.728;8.968;2023-07-29T06:52:02;17.70;99.90
6822;DHT22;3449;48.728;8.968;2023-07-29T06:54:29;17.70;99.90
6822;DHT22;3449;48.728;8.968;2023-07-29T06:56:58;17.70;99.90
6822;DHT22;3449;48.728;8.968;2023-07-29T06:59:25;17.60;99.90
6822;DHT22;3449;48.728;8.968;2023-07-29T07:01:52;17.60;99.90
6822;DHT22;3449;48.728;8.968;2023-07-29T07:04:18;17.50;99.90
6822;DHT22;3449;48.728;8.968;2023-07-29T07:06:47;17.60;99.90
6822;DHT22;3449;48.728;8.968;2023-07-29T07:09:14;17.60;99.90
6822;DHT22;3449;48.728;8.968;2023-07-29T07:11:40;17.60;99.90
6822;DHT22;3449;48.728;8.968;2023-07-29T07:14:07;17.60;99.90
6822;DHT22;3449;48.728;8.968;2023-07-29T07:16:34;17.60;99.90
6822;DHT22;3449;48.728;8.968;2023-07-29T07:19:02;17.70;99.90
6822;DHT22;3449;48.728;8.968;2023-07-29T07:21:29;17.70;99.90
6822;DHT22;3449;48.728;8.968;2023-07-29T07:23:59;17.70;99.90
6822;DHT22;3449;48.728;8.968;2023-07-29T07:26:29;17.70;99.90
6822;DHT22;3449;48.728;8.968;2023-07-29T07:28:56;17.70;99.90
6822;DHT22;3449;48.728;8.968;2023-07-29T07:31:23;17.70;99.90
6822;DHT22;3449;48.728;8.968;2023-07-29T07:33:50;17.80;99.90
6822;DHT22;3449;48.728;8.968;2023-07-29T07:36:19;17.80;99.90
6822;DHT22;3449;48.728;8.968;2023-07-29T07:38:47;17.90;99.90
6822;DHT22;3449;48.728;8.968;2023-07-29T07:41:16;17.90;99.90
6822;DHT22;3449;48.728;8.968;2023-07-29T07:43:42;17.90;99.90
6822;DHT22;3449;48.728;8.968;2023-07-29T07:46:09;18.00;99.90
6822;DHT22;3449;48.728;8.968;2023-07-29T07:48:38;18.20;99.90
6822;DHT22;3449;48.728;8.968;2023-07-29T07:51:11;18.30;99.90
6822;DHT22;3449;48.728;8.968;2023-07-29T07:53:38;18.40;99.90
6822;DHT22;3449;48.728;8.968;2023-07-29T07:56:05;18.60;99.90
6822;DHT22;3449;48.728;8.968;2023-07-29T07:58:34;18.70;99.90
6822;DHT22;3449;48.728;8.968;2023-07-29T08:01:02;18.70;99.90
6822;DHT22;3449;48.728;8.968;2023-07-29T08:03:29;18.80;99.90
6822;DHT22;3449;48.728;8.968;2023-07-29T08:05:56;18.80;99.90
6822;DHT22;3449;48.728;8.968;2023-07-29T08:08:23;19.00;99.90
6822;DHT22;3449;48.728;8.968;2023-07-29T08:10:50;19.00;99.90
6822;DHT22;3449;48.728;8.968;2023-07-29T08:13:17;19.00;99.90
6822;DHT22;3449;48.728;8.968;2023-07-29T08:15:49;19.00;99.90
6822;DHT22;3449;48.728;8.968;2023-07-29T08:18:16;19.10;99.90
6822;DHT22;3449;48.728;8.968;2023-07-29T08:20:51;19.10;99.90
6822;DHT22;3449;48.728;8.968;2023-07-29T08:23:18;19.10;99.90
6822;DHT22;3449;48.728;8.968;2023-07-29T08:25:51;19.20;99.90
6822;DHT22;3449;48.728;8.968;2023-07-29T08:28:19;19.30;99.90
6822;DHT22;3449;48.728;8.968;2023-07-29T08:30:48;19.40;99.90
6822;DHT22;3449;48.728;8.968;2023-07-29T08:33:15;19.60;99.90
6822;DHT22;3449;48.728;8.968;2023-07-29T08:35:42;19.70;99.90
6822;DHT22;3449;48.728;8.968;2023-07-29T08:38:09;19.80;99.90
6822;DHT22;3449;48.728;8.968;2023-07-29T08:40:41;19.80;99.90
6822;DHT22;3449;48.728;8.968;2023-07-29T08:43:09;19.90;99.90
6822;DHT22;3449;48.728;8.968;2023-07-29T08:45:38;20.10;99.90
6822;DHT22;3449;48.728;8.968;2023-07-29T08:48:08;20.30;99.90
6822;DHT22;3449;48.728;8.968;2023-07-29T08:50:36;20.40;99.90
6822;DHT22;3449;48.728;8.968;2023-07-29T08:53:04;20.50;99.90
6822;DHT22;3449;48.728;8.968;2023-07-29T08:55:36;20.40;99.90
6822;DHT22;3449;48.728;8.968;2023-07-29T08:58:03;20.40;99.90
6822;DHT22;3449;48.728;8.968;2023-07-29T09:00:31;20.40;99.90
6822;DHT22;3449;48.728;8.968;2023-07-29T09:02:58;20.50;99.90
6822;DHT22;3449;48.728;8.968;2023-07-29T09:05:33;20.60;99.90
6822;DHT22;3449;48.728;8.968;2023-07-29T09:08:00;20.70;99.90
6822;DHT22;3449;48.728;8.968;2023-07-29T09:10:28;21.20;99.90
6822;DHT22;3449;48.728;8.968;2023-07-29T09:12:55;21.70;99.90
6822;DHT22;3449;48.728;8.968;2023-07-29T09:15:32;22.20;99.90
6822;DHT22;3449;48.728;8.968;2023-07-29T09:17:59;22.40;99.90
6822;DHT22;3449;48.728;8.968;2023-07-29T09:20:36;22.80;99.90
6822;DHT22;3449;48.728;8.968;2023-07-29T09:23:03;22.60;99.90
6822;DHT22;3449;48.728;8.968;2023-07-29T09:25:33;22.30;99.90
6822;DHT22;3449;48.728;8.968;2023-07-29T09:28:00;22.20;99.90
6822;DHT22;3449;48.728;8.968;2023-07-29T09:30:28;21.80;99.90
6822;DHT22;3449;48.728;8.968;2023-07-29T09:32:55;21.70;99.90
6822;DHT22;3449;48.728;8.968;2023-07-29T09:35:22;21.80;99.90
6822;DHT22;3449;48.728;8.968;2023-07-29T09:37:51;22.10;99.90
6822;DHT22;3449;48.728;8.968;2023-07-29T09:40:18;22.80;99.90
6822;DHT22;3449;48.728;8.968;2023-07-29T09:42:49;23.30;99.90
6822;DHT22;3449;48.728;8.968;2023-07-29T09:45:21;23.30;99.90
6822;DHT22;3449;48.728;8.968;2023-07-29T09:47:48;23.00;99.90
6822;DHT22;3449;48.728;8.968;2023-07-29T09:50:15;22.80;99.90
6822;DHT22;3449;48.728;8.968;2023-07-29T09:52:43;23.10;99.90
6822;DHT22;3449;48.728;8.968;2023-07-29T09:55:12;23.60;99.90
6822;DHT22;3449;48.728;8.968;2023-07-29T09:57:39;23.90;99.90
6822;DHT22;3449;48.728;8.968;2023-07-29T10:00:07;24.00;99.90
6822;DHT22;3449;48.728;8.968;2023-07-29T10:02:37;24.40;99.90
6822;DHT22;3449;48.728;8.968;2023-07-29T10:05:06;24.50;99.90
6822;DHT22;3449;48.728;8.968;2023-07-29T10:07:36;24.50;99.90
6822;DHT22;3449;48.728;8.968;2023-07-29T10:10:05;24.30;99.90
6822;DHT22;3449;48.728;8.968;2023-07-29T10:12:34;24.00;99.90
6822;DHT22;3449;48.728;8.968;2023-07-29T10:15:03;23.70;99.90
6822;DHT22;3449;48.728;8.968;2023-07-29T10:17:34;23.40;99.90
6822;DHT22;3449;48.728;8.968;2023-07-29T10:20:01;23.30;99.90
6822;DHT22;3449;48.728;8.968;2023-07-29T10:22:32;23.10;99.90
6822;DHT22;3449;48.728;8.968;2023-07-29T10:25:03;23.30;99.90
6822;DHT22;3449;48.728;8.968;2023-07-29T10:27:42;23.10;99.90
6822;DHT22;3449;48.728;8.968;2023-07-29T10:30:11;22.90;99.90
6822;DHT22;3449;48.728;8.968;2023-07-29T10:32:42;22.70;99.90
6822;DHT22;3449;48.728;8.968;2023-07-29T10:35:12;22.50;99.90
6822;DHT22;3449;48.728;8.968;2023-07-29T10:37:40;22.70;99.90
6822;DHT22;3449;48.728;8.968;2023-07-29T10:40:09;22.80;99.90
6822;DHT22;3449;48.728;8.968;2023-07-29T10:42:38;23.10;99.90
6822;DHT22;3449;48.728;8.968;2023-07-29T10:45:20;23.60;99.90
6822;DHT22;3449;48.728;8.968;2023-07-29T10:47:48;23.80;99.90
6822;DHT22;3449;48.728;8.968;2023-07-29T10:50:19;23.80;99.90
6822;DHT22;3449;48.728;8.968;2023-07-29T10:52:49;23.90;99.90
6822;DHT22;3449;48.728;8.968;2023-07-29T10:55:28;23.80;99.90
6822;DHT22;3449;48.728;8.968;2023-07-29T10:58:12;24.10;99.90
6822;DHT22;3449;48.728;8.968;2023-07-29T11:00:40;24.20;99.90
6822;DHT22;3449;48.728;8.968;2023-07-29T11:03:12;24.10;99.90
6822;DHT22;3449;48.728;8.968;2023-07-29T11:05:58;24.10;99.90
6822;DHT22;3449;48.728;8.968;2023-07-29T11:08:31;24.00;99.90
6822;DHT22;3449;48.728;8.968;2023-07-29T11:11:05;24.10;99.90
6822;DHT22;3449;48.728;8.968;2023-07-29T11:13:34;24.00;99.90
6822;DHT22;3449;48.728;8.968;2023-07-29T11:16:02;24.00;99.90
6822;DHT22;3449;48.728;8.968;2023-07-29T11:18:30;24.10;99.90
6822;DHT22;3449;48.728;8.968;2023-07-29T11:21:00;24.10;99.90
6822;DHT22;3449;48.728;8.968;2023-07-29T11:23:31;24.20;99.90
6822;DHT22;3449;48.728;8.968;2023-07-29T11:25:59;24.20;99.90
6822;DHT22;3449;48.728;8.968;2023-07-29T11:28:27;24.20;99.90
6822;DHT22;3449;48.728;8.968;2023-07-29T11:30:56;24.00;99.90
6822;DHT22;3449;48.728;8.968;2023-07-29T11:33:24;23.90;99.90
6822;DHT22;3449;48.728;8.968;2023-07-29T11:35:56;23.90;99.90
6822;DHT22;3449;48.728;8.968;2023-07-29T11:38:23;24.10;99.90
6822;DHT22;3449;48.728;8.968;2023-07-29T11:40:57;24.20;99.90
6822;DHT22;3449;48.728;8.968;2023-07-29T11:43:24;24.20;99.90
6822;DHT22;3449;48.728;8.968;2023-07-29T11:45:52;24.60;99.90
6822;DHT22;3449;48.728;8.968;2023-07-29T11:48:26;25.10;99.90
6822;DHT22;3449;48.728;8.968;2023-07-29T11:50:53;25.50;99.90
6822;DHT22;3449;48.728;8.968;2023-07-29T11:53:20;25.80;99.90
6822;DHT22;3449;48.728;8.968;2023-07-29T11:55:50;26.30;99.90
6822;DHT22;3449;48.728;8.968;2023-07-29T11:58:17;26.40;99.90
6822;DHT22;3449;48.728;8.968;2023-07-29T12:00:44;26.90;99.90
6822;DHT22;3449;48.728;8.968;2023-07-29T12:03:11;27.00;99.90
6822;DHT22;3449;48.728;8.968;2023-07-29T12:05:44;27.00;99.90
6822;DHT22;3449;48.728;8.968;2023-07-29T12:08:11;26.60;99.90
6822;DHT22;3449;48.728;8.968;2023-07-29T12:10:38;26.30;99.90
6822;DHT22;3449;48.728;8.968;2023-07-29T12:13:07;26.40;99.90
6822;DHT22;3449;48.728;8.968;2023-07-29T12:15:38;26.50;99.90
6822;DHT22;3449;48.728;8.968;2023-07-29T12:18:06;26.40;99.90
6822;DHT22;3449;48.728;8.968;2023-07-29T12:20:33;26.20;99.90
6822;DHT22;3449;48.728;8.968;2023-07-29T12:23:04;26.10;99.90
6822;DHT22;3449;48.728;8.968;2023-07-29T12:25:33;26.50;99.90
6822;DHT22;3449;48.728;8.968;2023-07-29T12:28:05;26.80;99.90
6822;DHT22;3449;48.728;8.968;2023-07-29T12:30:32;27.10;99.90
6822;DHT22;3449;48.728;8.968;2023-07-29T12:32:59;27.40;99.90
6822;DHT22;3449;48.728;8.968;2023-07-29T12:35:35;27.40;99.90
6822;DHT22;3449;48.728;8.968;2023-07-29T12:38:03;27.40;99.90
6822;DHT22;3449;48.728;8.968;2023-07-29T12:40:29;27.70;99.90
6822;DHT22;3449;48.728;8.968;2023-07-29T12:42:57;28.10;99.90
6822;DHT22;3449;48.728;8.968;2023-07-29T12:45:27;28.50;99.90
6822;DHT22;3449;48.728;8.968;2023-07-29T12:47:55;28.40;99.90
6822;DHT22;3449;48.728;8.968;2023-07-29T12:50:22;28.10;99.90
6822;DHT22;3449;48.728;8.968;2023-07-29T12:52:49;27.90;99.90
6822;DHT22;3449;48.728;8.968;2023-07-29T12:55:17;27.30;99.90
6822;DHT22;3449;48.728;8.968;2023-07-29T12:57:46;27.20;99.90
6822;DHT22;3449;48.728;8.968;2023-07-29T13:00:13;26.70;99.90
6822;DHT22;3449;48.728;8.968;2023-07-29T13:02:40;26.90;99.90
6822;DHT22;3449;48.728;8.968;2023-07-29T13:05:09;26.80;99.90
6822;DHT22;3449;48.728;8.968;2023-07-29T13:07:37;26.70;99.90
6822;DHT22;3449;48.728;8.968;2023-07-29T13:10:04;26.50;99.90
6822;DHT22;3449;48.728;8.968;2023-07-29T13:12:33;26.60;99.90
6822;DHT22;3449;48.728;8.968;2023-07-29T13:15:00;26.50;99.90
6822;DHT22;3449;48.728;8.968;2023-07-29T13:17:27;26.50;99.90
6822;DHT22;3449;48.728;8.968;2023-07-29T13:19:54;26.80;99.90
6822;DHT22;3449;48.728;8.968;2023-07-29T13:22:21;26.90;99.90
6822;DHT22;3449;48.728;8.968;2023-07-29T13:24:47;26.80;99.90
6822;DHT22;3449;48.728;8.968;2023-07-29T13:27:14;26.40;99.90
6822;DHT22;3449;48.728;8.968;2023-07-29T13:29:42;26.20;99.90
6822;DHT22;3449;48.728;8.968;2023-07-29T13:32:10;26.10;99.90
6822;DHT22;3449;48.728;8.968;2023-07-29T13:34:36;26.00;99.90
6822;DHT22;3449;48.728;8.968;2023-07-29T13:37:08;25.90;99.90
6822;DHT22;3449;48.728;8.968;2023-07-29T13:39:35;25.80;99.90
6822;DHT22;3449;48.728;8.968;2023-07-29T13:42:02;25.80;99.90
6822;DHT22;3449;48.728;8.968;2023-07-29T13:44:29;26.10;99.90
6822;DHT22;3449;48.728;8.968;2023-07-29T13:46:57;26.20;99.90
6822;DHT22;3449;48.728;8.968;2023-07-29T13:49:24;26.10;99.90
6822;DHT22;3449;48.728;8.968;2023-07-29T13:51:50;26.10;99.90
6822;DHT22;3449;48.728;8.968;2023-07-29T13:54:17;25.90;99.90
6822;DHT22;3449;48.728;8.968;2023-07-29T13:56:44;26.30;99.90
6822;DHT22;3449;48.728;8.968;2023-07-29T13:59:12;26.70;99.90
6822;DHT22;3449;48.728;8.968;2023-07-29T14:01:39;26.80;99.90
6822;DHT22;3449;48.728;8.968;2023-07-29T14:04:07;26.90;99.90
6822;DHT22;3449;48.728;8.968;2023-07-29T14:06:34;26.60;99.90
6822;DHT22;3449;48.728;8.968;2023-07-29T14:09:01;26.40;99.90
6822;DHT22;3449;48.728;8.968;2023-07-29T14:11:28;26.10;99.90
6822;DHT22;3449;48.728;8.968;2023-07-29T14:13:58;25.90;99.90
6822;DHT22;3449;48.728;8.968;2023-07-29T14:16:24;25.70;99.90
6822;DHT22;3449;48.728;8.968;2023-07-29T14:18:51;25.50;99.90
6822;DHT22;3449;48.728;8.968;2023-07-29T14:21:22;25.50;99.90
6822;DHT22;3449;48.728;8.968;2023-07-29T14:23:49;25.80;99.90
6822;DHT22;3449;48.728;8.968;2023-07-29T14:26:15;25.90;99.90
6822;DHT22;3449;48.728;8.968;2023-07-29T14:28:45;25.80;99.90
6822;DHT22;3449;48.728;8.968;2023-07-29T14:31:12;25.70;99.90
6822;DHT22;3449;48.728;8.968;2023-07-29T14:33:39;25.50;99.90
6822;DHT22;3449;48.728;8.968;2023-07-29T14:36:05;25.30;99.90
6822;DHT22;3449;48.728;8.968;2023-07-29T14:38:34;25.20;99.90
6822;DHT22;3449;48.728;8.968;2023-07-29T14:41:01;25.00;99.90
6822;DHT22;3449;48.728;8.968;2023-07-29T14:43:29;24.90;99.90
6822;DHT22;3449;48.728;8.968;2023-07-29T14:45:56;25.00;99.90
6822;DHT22;3449;48.728;8.968;2023-07-29T14:48:23;25.00;99.90
6822;DHT22;3449;48.728;8.968;2023-07-29T14:50:50;25.00;99.90
6822;DHT22;3449;48.728;8.968;2023-07-29T14:53:17;25.00;99.90
6822;DHT22;3449;48.728;8.968;2023-07-29T14:55:45;25.00;99.90
6822;DHT22;3449;48.728;8.968;2023-07-29T14:58:12;24.90;99.90
6822;DHT22;3449;48.728;8.968;2023-07-29T15:00:39;25.00;99.90
6822;DHT22;3449;48.728;8.968;2023-07-29T15:03:06;25.10;99.90
6822;DHT22;3449;48.728;8.968;2023-07-29T15:05:33;25.10;99.90
6822;DHT22;3449;48.728;8.968;2023-07-29T15:08:00;25.10;99.90
6822;DHT22;3449;48.728;8.968;2023-07-29T15:10:27;25.10;99.90
6822;DHT22;3449;48.728;8.968;2023-07-29T15:12:56;25.20;99.90
6822;DHT22;3449;48.728;8.968;2023-07-29T15:15:23;25.20;99.90
6822;DHT22;3449;48.728;8.968;2023-07-29T15:17:50;25.30;99.90
6822;DHT22;3449;48.728;8.968;2023-07-29T15:20:16;25.20;99.90
6822;DHT22;3449;48.728;8.968;2023-07-29T15:22:43;25.50;99.90
6822;DHT22;3449;48.728;8.968;2023-07-29T15:25:10;25.60;99.90
6822;DHT22;3449;48.728;8.968;2023-07-29T15:27:37;25.40;99.90
6822;DHT22;3449;48.728;8.968;2023-07-29T15:30:07;25.50;99.90
6822;DHT22;3449;48.728;8.968;2023-07-29T15:32:37;25.90;99.90
6822;DHT22;3449;48.728;8.968;2023-07-29T15:35:04;26.20;99.90
6822;DHT22;3449;48.728;8.968;2023-07-29T15:37:31;26.60;99.90
6822;DHT22;3449;48.728;8.968;2023-07-29T15:39:58;26.60;99.90
6822;DHT22;3449;48.728;8.968;2023-07-29T15:42:25;26.60;99.90
6822;DHT22;3449;48.728;8.968;2023-07-29T15:44:52;26.60;99.90
6822;DHT22;3449;48.728;8.968;2023-07-29T15:47:20;26.60;99.90
6822;DHT22;3449;48.728;8.968;2023-07-29T15:49:46;26.80;99.90
6822;DHT22;3449;48.728;8.968;2023-07-29T15:52:13;26.80;99.90
6822;DHT22;3449;48.728;8.968;2023-07-29T15:54:40;26.50;99.90
6822;DHT22;3449;48.728;8.968;2023-07-29T15:57:07;26.60;99.90
6822;DHT22;3449;48.728;8.968;2023-07-29T15:59:34;26.90;99.90
6822;DHT22;3449;48.728;8.968;2023-07-29T16:02:01;26.80;99.90
6822;DHT22;3449;48.728;8.968;2023-07-29T16:04:29;27.10;99.90
6822;DHT22;3449;48.728;8.968;2023-07-29T16:06:56;27.20;99.90